Time;durP1;ratioP1;P1;durP2;ratioP2;P2;SDS_P1;SDS_P2;PMS_P1;PMS_P2;Temp;Humidity;BMP_temperature;BMP_pressure;BME280_temperature;BME280_humidity;BME280_pressure;Samples;Min_cycle;Max_cycle;Signal;HPM_P1;HPM_P2
2024/04/03 00:00:43;;;;;;;3.37;1.80;;;8.10;99.90;;;;;;5097575;28;20212;-43
2024/04/03 00:03:09;;;;;;;3.30;1.87;;;8.10;99.90;;;;;;5079668;28;20191;-42
2024/04/03 00:05:35;;;;;;;4.77;1.87;;;8.10;23.90;;;;;;5079923;28;20414;-42
2024/04/03 00:08:01;;;;;;;7.07;1.40;;;8.10;99.90;;;;;;5097754;28;20188;-43
2024/04/03 00:10:27;;;;;;;2.33;1.40;;;8.10;99.90;;;;;;5097921;28;20406;-41
2024/04/03 00:12:52;;;;;;;5.47;1.70;;;8.10;1.00;;;;;;5097900;28;20264;-41
2024/04/03 00:15:18;;;;;;;2.70;1.37;;;8.20;47.40;;;;;;5079668;28;20196;-42
2024/04/03 00:17:44;;;;;;;2.63;1.80;;;8.20;1.00;;;;;;5078059;28;20283;-41
2024/04/03 00:20:09;;;;;;;3.33;1.37;;;8.10;99.90;;;;;;5097762;28;20620;-41
2024/04/03 00:22:35;;;;;;;2.63;1.50;;;8.10;1.00;;;;;;5097901;28;20291;-42
2024/04/03 00:25:17;;;;;;;1.70;1.13;;;8.10;1.00;;;;;;5080998;28;20208;-43
2024/04/03 00:27:43;;;;;;;2.60;1.43;;;8.10;99.90;;;;;;5097615;28;20426;-40
2024/04/03 00:30:09;;;;;;;2.50;1.63;;;8.10;99.90;;;;;;5079929;28;20793;-41
2024/04/03 00:32:35;;;;;;;5.93;1.67;;;8.10;99.90;;;;;;5097296;28;20249;-42
2024/04/03 00:35:01;;;;;;;6.53;1.53;;;8.10;99.90;;;;;;5080175;28;20731;-41
2024/04/03 00:37:28;;;;;;;2.43;1.87;;;8.10;99.90;;;;;;5079131;28;20191;-42
2024/04/03 00:39:54;;;;;;;2.23;1.20;;;8.10;1.00;;;;;;5097592;28;20505;-41
2024/04/03 00:42:20;;;;;;;2.90;1.50;;;8.10;99.90;;;;;;5097524;28;20561;-42
2024/04/03 00:44:49;;;;;;;2.83;1.60;;;8.10;99.90;;;;;;5079756;28;20200;-43
2024/04/03 00:47:16;;;;;;;4.53;1.23;;;8.10;99.90;;;;;;5079832;28;20423;-42
2024/04/03 00:49:43;;;;;;;7.37;1.80;;;8.10;1.00;;;;;;5097562;28;20511;-43
2024/04/03 00:52:09;;;;;;;2.33;1.30;;;8.10;1.00;;;;;;5097677;28;20504;-42
2024/04/03 00:54:35;;;;;;;3.77;1.60;;;8.10;1.00;;;;;;5097909;28;20858;-41
2024/04/03 00:57:01;;;;;;;4.53;1.10;;;8.10;99.90;;;;;;5079480;28;20422;-42
2024/04/03 00:59:28;;;;;;;3.37;1.00;;;8.20;99.90;;;;;;5097485;28;20542;-42
2024/04/03 01:01:54;;;;;;;2.23;1.00;;;8.20;99.90;;;;;;5079708;28;20598;-43
2024/04/03 01:04:19;;;;;;;3.80;1.47;;;8.20;1.00;;;;;;5097537;28;20438;-43
2024/04/03 01:06:45;;;;;;;2.17;1.10;;;8.20;1.00;;;;;;5097254;28;20226;-41
2024/04/03 01:09:10;;;;;;;4.10;1.67;;;8.20;1.00;;;;;;5096809;28;20275;-42
2024/04/03 01:11:36;;;;;;;2.90;1.83;;;8.20;1.00;;;;;;5097512;28;20551;-43
2024/04/03 01:14:01;;;;;;;2.00;1.30;;;8.20;1.00;;;;;;5097357;28;20184;-43
2024/04/03 01:16:27;;;;;;;2.90;1.37;;;8.30;1.00;;;;;;5097378;28;20228;-42
2024/04/03 01:18:53;;;;;;;2.17;1.20;;;8.20;1.00;;;;;;5080619;28;20208;-42
2024/04/03 01:21:18;;;;;;;3.23;1.37;;;8.20;1.00;;;;;;5083910;28;20661;-43
2024/04/03 01:23:44;;;;;;;3.40;1.50;;;8.20;99.90;;;;;;5101499;28;20343;-42
2024/04/03 01:26:09;;;;;;;3.63;1.10;;;8.20;99.90;;;;;;5083880;28;20282;-44
2024/04/03 01:28:35;;;;;;;3.63;1.10;;;8.20;99.90;;;;;;5100785;28;20459;-41
2024/04/03 01:31:01;;;;;;;3.50;1.70;;;8.20;99.90;;;;;;5101323;28;20168;-43
2024/04/03 01:33:26;;;;;;;3.07;1.50;;;8.10;1.00;;;;;;5066848;28;20184;-42
2024/04/03 01:35:52;;;;;;;3.10;1.60;;;8.10;13.70;;;;;;5101729;28;20192;-42
2024/04/03 01:38:17;;;;;;;2.70;1.70;;;8.10;99.90;;;;;;5083394;28;20481;-42
2024/04/03 01:40:43;;;;;;;3.10;1.60;;;8.10;99.90;;;;;;5100967;28;20214;-45
2024/04/03 01:43:09;;;;;;;2.57;1.30;;;8.00;1.00;;;;;;5100906;28;20252;-42
2024/04/03 01:45:34;;;;;;;2.17;1.40;;;8.00;99.90;;;;;;5100398;28;20440;-42
2024/04/03 01:48:00;;;;;;;2.50;1.13;;;8.00;99.90;;;;;;5100455;28;20563;-42
2024/04/03 01:50:36;;;;;;;2.23;1.20;;;8.00;99.90;;;;;;5101083;28;20176;-44
2024/04/03 01:53:02;;;;;;;2.23;1.20;;;8.00;99.90;;;;;;5100920;28;20242;-42
2024/04/03 01:55:28;;;;;;;3.90;1.50;;;8.00;99.90;;;;;;5082892;28;20414;-42
2024/04/03 01:57:53;;;;;;;2.97;1.10;;;7.90;99.90;;;;;;5100634;28;20234;-42
2024/04/03 02:00:19;;;;;;;2.03;1.20;;;7.90;1.00;;;;;;5100081;28;20515;-41
2024/04/03 02:02:45;;;;;;;2.47;1.37;;;7.90;1.00;;;;;;5100425;28;20188;-44
2024/04/03 02:05:10;;;;;;;2.77;1.50;;;7.90;1.00;;;;;;5100301;28;20426;-43
2024/04/03 02:07:36;;;;;;;2.93;1.40;;;7.90;1.00;;;;;;5082059;28;20581;-43
2024/04/03 02:10:02;;;;;;;1.93;1.10;;;7.90;1.00;;;;;;5100113;28;20570;-42
2024/04/03 02:15:54;;;;;;;3.13;1.03;;;7.90;99.90;;;;;;5100222;28;20461;-41
2024/04/03 02:18:19;;;;;;;3.07;1.03;;;8.00;54.80;;;;;;5100148;28;20708;-42
2024/04/03 02:20:45;;;;;;;1.77;1.20;;;8.00;21.60;;;;;;5099916;28;20470;-43
2024/04/03 02:23:11;;;;;;;3.13;1.20;;;8.00;4.00;;;;;;5100289;28;20181;-42
2024/04/03 02:25:37;;;;;;;3.63;1.53;;;8.00;1.00;;;;;;5100231;28;20172;-44
2024/04/03 02:28:03;;;;;;;2.67;1.30;;;8.00;1.00;;;;;;5081862;28;20181;-42
2024/04/03 02:30:29;;;;;;;6.00;1.50;;;8.10;1.00;;;;;;5063954;28;20488;-43
2024/04/03 02:32:55;;;;;;;1.67;1.27;;;8.10;99.90;;;;;;5099649;28;20434;-43
2024/04/03 02:35:20;;;;;;;2.10;1.20;;;8.10;99.90;;;;;;5099456;28;20515;-42
2024/04/03 02:37:46;;;;;;;2.63;1.27;;;8.10;83.30;;;;;;5100097;28;20181;-43
2024/04/03 02:40:12;;;;;;;2.40;1.50;;;8.10;1.00;;;;;;5081886;28;20275;-42
2024/04/03 02:42:38;;;;;;;5.10;1.90;;;8.20;99.90;;;;;;5099609;28;20218;-45
2024/04/03 02:45:04;;;;;;;3.03;1.70;;;8.20;99.90;;;;;;5099439;28;20475;-42
2024/04/03 02:47:31;;;;;;;3.17;1.87;;;8.20;1.00;;;;;;5099623;28;20241;-42
2024/04/03 02:49:56;;;;;;;3.17;1.77;;;8.20;1.00;;;;;;5100075;28;20419;-45
2024/04/03 02:52:22;;;;;;;3.00;1.63;;;8.20;1.00;;;;;;5099753;28;20422;-41
2024/04/03 02:54:48;;;;;;;2.33;1.60;;;8.20;88.60;;;;;;5099384;28;20271;-44
2024/04/03 02:57:15;;;;;;;3.30;1.53;;;8.20;99.90;;;;;;5099163;28;20192;-43
2024/04/03 02:59:42;;;;;;;1.80;1.10;;;8.20;99.90;;;;;;5099076;28;20201;-41
2024/04/03 03:02:07;;;;;;;2.20;1.43;;;8.20;1.00;;;;;;5080689;28;20465;-45
2024/04/03 03:04:43;;;;;;;3.63;1.83;;;8.20;99.90;;;;;;5099206;28;20510;-43
2024/04/03 03:07:09;;;;;;;1.93;1.23;;;8.20;99.90;;;;;;5081435;28;20187;-42
2024/04/03 03:09:35;;;;;;;4.20;1.43;;;8.20;99.90;;;;;;5098765;28;20418;-43
2024/04/03 03:12:02;;;;;;;2.20;1.43;;;8.20;1.00;;;;;;5099201;28;20419;-41
2024/04/03 03:14:28;;;;;;;2.60;1.27;;;8.10;99.90;;;;;;5096696;28;20446;-43
2024/04/03 03:16:53;;;;;;;1.40;1.10;;;8.10;1.00;;;;;;5096775;28;20502;-42
2024/04/03 03:19:19;;;;;;;3.50;1.77;;;8.10;1.00;;;;;;5097080;28;20196;-43
2024/04/03 03:21:46;;;;;;;4.13;1.57;;;8.10;1.00;;;;;;5079388;28;20278;-42
2024/04/03 03:24:11;;;;;;;2.43;1.20;;;8.10;1.00;;;;;;5078115;28;20181;-43
2024/04/03 03:26:37;;;;;;;2.53;1.50;;;8.10;1.00;;;;;;5096147;28;20418;-43
2024/04/03 03:29:03;;;;;;;1.90;1.33;;;8.10;99.90;;;;;;5098313;28;20187;-42
2024/04/03 03:31:28;;;;;;;1.80;1.20;;;8.20;1.00;;;;;;5098795;28;20176;-42
2024/04/03 03:33:55;;;;;;;4.10;1.60;;;8.20;1.00;;;;;;5080594;28;20212;-46
2024/04/03 03:36:20;;;;;;;2.07;1.47;;;8.20;1.00;;;;;;5097887;28;20184;-43
2024/04/03 03:38:46;;;;;;;1.50;1.20;;;8.20;99.90;;;;;;5097058;28;20517;-42
2024/04/03 03:41:11;;;;;;;1.90;1.20;;;8.30;99.90;;;;;;5097141;28;20520;-42
2024/04/03 03:43:37;;;;;;;2.87;1.60;;;8.30;99.90;;;;;;5079011;28;20184;-42
2024/04/03 03:46:03;;;;;;;2.50;1.30;;;8.30;85.10;;;;;;5095119;28;20504;-43
2024/04/03 03:53:58;;;;;;;2.50;1.80;;;8.20;99.90;;;;;;5096784;28;20425;-41
2024/04/03 03:56:24;;;;;;;3.13;1.27;;;8.20;1.00;;;;;;5095123;28;20415;-42
2024/04/03 03:58:50;;;;;;;3.50;1.50;;;8.20;1.00;;;;;;5095901;28;20176;-45
2024/04/03 04:01:16;;;;;;;2.77;1.63;;;8.20;73.20;;;;;;5094292;28;20568;-45
2024/04/03 04:03:41;;;;;;;3.07;1.70;;;8.20;99.90;;;;;;5094789;28;20595;-45
2024/04/03 04:06:07;;;;;;;1.60;1.17;;;8.20;99.90;;;;;;5095009;28;20207;-43
2024/04/03 04:08:33;;;;;;;3.87;1.70;;;8.20;99.90;;;;;;5077938;28;20191;-43
2024/04/03 04:11:00;;;;;;;5.47;1.97;;;8.20;99.90;;;;;;5097006;28;20169;-44
2024/04/03 04:13:26;;;;;;;1.77;1.30;;;8.20;1.00;;;;;;5097493;28;20524;-42
2024/04/03 04:15:52;;;;;;;2.50;1.50;;;8.20;1.00;;;;;;5097786;28;20506;-44
2024/04/03 04:18:18;;;;;;;3.03;1.50;;;8.20;1.00;;;;;;5097055;28;20456;-46
2024/04/03 04:20:43;;;;;;;26.17;8.00;;;9.60;1.00;;;;;;5095311;28;20478;-46
2024/04/03 04:23:09;;;;;;;34.90;8.80;;;10.20;99.90;;;;;;5077721;28;20422;-45
2024/04/03 04:25:35;;;;;;;22.37;7.13;;;10.80;99.90;;;;;;5078078;28;20257;-44
2024/04/03 04:28:00;;;;;;;14.33;5.03;;;11.50;1.00;;;;;;5095148;28;20184;-47
2024/04/03 04:30:27;;;;;;;18.40;5.40;;;12.00;1.00;;;;;;5095567;28;20191;-47
2024/04/03 04:32:53;;;;;;;8.17;2.80;;;12.50;99.90;;;;;;5094566;28;20183;-46
2024/04/03 04:35:18;;;;;;;24.93;2.80;;;12.90;99.90;;;;;;5095133;28;20441;-44
2024/04/03 04:37:45;;;;;;;5.20;2.00;;;13.30;99.90;;;;;;5092678;28;20820;-45
2024/04/03 04:40:14;;;;;;;4.07;2.37;;;13.40;1.00;;;;;;5093407;28;20298;-47
2024/04/03 04:42:39;;;;;;;7.03;2.40;;;13.60;1.00;;;;;;5092802;28;20485;-49
2024/04/03 04:45:06;;;;;;;5.80;2.40;;;13.80;1.00;;;;;;5093006;28;20422;-46
2024/04/03 04:47:31;;;;;;;3.10;1.80;;;14.10;99.90;;;;;;5093224;28;20180;-45
2024/04/03 04:49:57;;;;;;;2.83;1.57;;;14.30;99.90;;;;;;5092851;28;20513;-45
2024/04/03 04:52:23;;;;;;;3.40;1.67;;;14.20;99.90;;;;;;5093750;28;20192;-43
2024/04/03 04:54:48;;;;;;;2.40;1.23;;;13.90;99.70;;;;;;5098559;28;20180;-43
2024/04/03 04:57:15;;;;;;;2.20;1.33;;;13.40;55.70;;;;;;5100273;28;20195;-43
2024/04/03 04:59:41;;;;;;;2.07;1.50;;;12.70;64.50;;;;;;5100685;28;20585;-42
2024/04/03 05:02:07;;;;;;;4.40;3.30;;;12.00;95.00;;;;;;5100548;28;20712;-42
2024/04/03 05:04:32;;;;;;;2.67;2.17;;;11.50;99.90;;;;;;5099793;28;20180;-42
2024/04/03 05:07:00;;;;;;;3.30;1.77;;;11.10;99.90;;;;;;5081790;28;20501;-45
2024/04/03 05:09:28;;;;;;;3.37;2.47;;;10.80;99.90;;;;;;5099034;28;20230;-45
2024/04/03 05:11:54;;;;;;;8.20;2.40;;;10.90;1.00;;;;;;5098743;28;20430;-45
2024/04/03 05:14:19;;;;;;;3.63;1.53;;;10.80;1.00;;;;;;5098304;28;20418;-47
2024/04/03 05:16:45;;;;;;;3.30;1.30;;;10.80;1.00;;;;;;5098758;28;20307;-44
2024/04/03 05:19:10;;;;;;;2.50;1.40;;;10.50;99.90;;;;;;5098613;28;20237;-42
2024/04/03 05:21:36;;;;;;;4.27;1.73;;;10.30;99.90;;;;;;5081709;28;20592;-42
2024/04/03 05:24:02;;;;;;;2.60;1.47;;;10.10;1.00;;;;;;5099063;28;20180;-45
2024/04/03 05:26:27;;;;;;;3.17;1.27;;;9.90;1.00;;;;;;5100017;28;20339;-43
2024/04/03 05:28:53;;;;;;;3.70;1.40;;;9.60;1.00;;;;;;5100199;28;20415;-42
2024/04/03 05:31:20;;;;;;;2.93;1.30;;;9.40;1.00;;;;;;5100425;28;20210;-42
2024/04/03 05:33:46;;;;;;;4.27;1.40;;;9.20;78.80;;;;;;5097992;28;20558;-41
2024/04/03 05:36:12;;;;;;;3.37;1.47;;;9.10;99.90;;;;;;5079603;28;20456;-43
2024/04/03 05:38:38;;;;;;;4.90;1.30;;;8.90;99.90;;;;;;5080770;28;20414;-42
2024/04/03 05:41:04;;;;;;;2.67;1.50;;;8.80;1.00;;;;;;5098420;28;20211;-43
2024/04/03 05:43:31;;;;;;;1.90;1.40;;;8.70;99.90;;;;;;5099939;28;20473;-45
2024/04/03 05:45:57;;;;;;;2.87;1.40;;;8.60;25.10;;;;;;5098791;28;20436;-42
2024/04/03 05:48:24;;;;;;;2.77;1.47;;;8.50;1.00;;;;;;5097920;28;20450;-43
2024/04/03 05:51:04;;;;;;;2.50;1.20;;;8.50;1.00;;;;;;5078877;28;20566;-43
2024/04/03 05:53:30;;;;;;;2.47;1.20;;;8.50;1.00;;;;;;5097831;28;20901;-42
2024/04/03 05:55:57;;;;;;;2.87;1.30;;;8.50;1.00;;;;;;5095479;28;20749;-42
2024/04/03 05:58:23;;;;;;;4.00;1.30;;;8.20;1.00;;;;;;5062658;28;20782;-43
2024/04/03 06:00:50;;;;;;;1.80;1.40;;;8.20;99.90;;;;;;5078016;28;20580;-43
2024/04/03 06:03:15;;;;;;;3.20;1.80;;;8.10;63.20;;;;;;5075915;28;20439;-43
2024/04/03 06:05:45;;;;;;;5.00;3.13;;;8.20;99.90;;;;;;5097760;28;20933;-45
2024/04/03 06:08:12;;;;;;;1.87;1.50;;;8.20;1.00;;;;;;5097921;28;20195;-42
2024/04/03 06:10:38;;;;;;;2.10;1.53;;;8.30;1.00;;;;;;5097966;28;20429;-42
2024/04/03 06:13:05;;;;;;;2.73;1.60;;;8.40;99.90;;;;;;5097738;28;20423;-43
2024/04/03 06:15:31;;;;;;;3.07;1.90;;;8.40;99.90;;;;;;5080881;28;20725;-43
2024/04/03 06:17:57;;;;;;;1.93;1.30;;;8.50;1.00;;;;;;5080620;28;20459;-44
2024/04/03 06:20:23;;;;;;;3.93;1.73;;;8.50;1.00;;;;;;5099327;28;20430;-46
2024/04/03 06:22:48;;;;;;;3.43;1.83;;;8.60;99.90;;;;;;5099845;28;20451;-43
2024/04/03 06:25:14;;;;;;;1.30;0.90;;;8.60;99.90;;;;;;5098043;28;20180;-44
2024/04/03 06:27:42;;;;;;;5.20;1.33;;;8.70;99.90;;;;;;5099550;28;20177;-44
2024/04/03 06:30:08;;;;;;;2.70;1.50;;;8.80;99.90;;;;;;5095901;28;20852;-42
2024/04/03 06:32:34;;;;;;;2.00;1.20;;;8.90;99.90;;;;;;5098110;28;20657;-42
2024/04/03 06:34:59;;;;;;;2.27;1.17;;;9.00;99.90;;;;;;5097603;28;20522;-45
2024/04/03 06:37:25;;;;;;;2.10;1.40;;;9.00;99.90;;;;;;5081321;28;20192;-45
2024/04/03 06:39:50;;;;;;;2.53;1.30;;;9.10;99.90;;;;;;5098811;28;20185;-44
2024/04/03 06:42:16;;;;;;;4.97;1.60;;;9.20;99.90;;;;;;5099142;28;20208;-43
2024/04/03 06:44:43;;;;;;;3.30;1.60;;;9.20;55.80;;;;;;5099581;28;20176;-43
2024/04/03 06:47:08;;;;;;;2.50;1.50;;;9.30;99.90;;;;;;5081155;28;20192;-43
2024/04/03 06:49:34;;;;;;;4.00;1.40;;;9.20;93.00;;;;;;5078978;28;20841;-42
2024/04/03 06:52:00;;;;;;;2.23;1.43;;;9.20;99.90;;;;;;5092432;28;20199;-41
2024/04/03 06:54:26;;;;;;;4.13;1.40;;;9.20;1.00;;;;;;5099589;28;20462;-42
2024/04/03 06:56:52;;;;;;;1.63;1.00;;;9.20;1.00;;;;;;5098642;28;20452;-42
2024/04/03 06:59:18;;;;;;;2.40;1.00;;;9.20;99.90;;;;;;5098426;28;20457;-42
2024/04/03 07:01:44;;;;;;;2.00;1.13;;;9.10;1.00;;;;;;5079899;28;20204;-42
2024/04/03 07:04:09;;;;;;;2.00;1.50;;;9.10;1.00;;;;;;5099480;28;20251;-41
2024/04/03 07:06:36;;;;;;;2.93;1.67;;;9.10;99.90;;;;;;5063260;28;20184;-42
2024/04/03 07:09:04;;;;;;;2.37;1.40;;;9.20;1.00;;;;;;5097935;28;20267;-42
2024/04/03 07:11:30;;;;;;;3.60;1.93;;;9.10;99.90;;;;;;5086180;28;20418;-42
2024/04/03 07:13:56;;;;;;;2.33;2.13;;;9.10;1.00;;;;;;5041222;28;20423;-43
2024/04/03 07:16:24;;;;;;;3.87;1.90;;;9.20;55.60;;;;;;5076685;28;20852;-42
2024/04/03 07:18:54;;;;;;;4.13;2.93;;;9.20;99.90;;;;;;5078049;28;20508;-42
2024/04/03 07:21:20;;;;;;;4.33;3.80;;;9.30;5.50;;;;;;5059793;28;20939;-47
2024/04/03 07:23:45;;;;;;;4.07;1.80;;;9.30;99.90;;;;;;5059919;28;20427;-43
2024/04/03 07:26:11;;;;;;;1.93;1.43;;;9.40;1.00;;;;;;5058734;28;20423;-45
2024/04/03 07:28:37;;;;;;;1.80;1.50;;;9.50;99.90;;;;;;5078003;28;20173;-42
2024/04/03 07:31:02;;;;;;;3.47;1.93;;;9.50;1.00;;;;;;5076037;28;20188;-42
2024/04/03 07:33:28;;;;;;;2.57;1.60;;;9.60;99.90;;;;;;5096404;28;20582;-44
2024/04/03 07:35:54;;;;;;;3.23;1.50;;;9.60;99.90;;;;;;5096041;28;20411;-44
2024/04/03 07:38:20;;;;;;;1.83;1.27;;;9.70;99.90;;;;;;5097066;28;20177;-42
2024/04/03 07:40:50;;;;;;;2.27;1.43;;;9.80;1.00;;;;;;5096939;28;20204;-44
2024/04/03 07:43:16;;;;;;;2.93;1.50;;;9.90;1.00;;;;;;5064806;28;20435;-44
2024/04/03 07:45:41;;;;;;;2.70;1.53;;;10.00;99.90;;;;;;5077341;28;20987;-42
2024/04/03 07:48:07;;;;;;;2.50;1.23;;;10.20;97.00;;;;;;5079740;28;20446;-41
2024/04/03 07:50:33;;;;;;;3.30;1.33;;;10.30;1.00;;;;;;5098681;28;20171;-43
2024/04/03 07:52:58;;;;;;;1.80;1.20;;;10.40;99.90;;;;;;5097936;28;20454;-42
2024/04/03 07:55:24;;;;;;;1.30;1.03;;;10.30;99.90;;;;;;5098511;28;20490;-42
2024/04/03 07:57:50;;;;;;;1.93;1.23;;;10.40;12.60;;;;;;5066591;28;20332;-42
2024/04/03 08:00:15;;;;;;;4.03;1.23;;;10.50;1.00;;;;;;5077726;28;20498;-44
2024/04/03 08:02:42;;;;;;;2.40;0.87;;;10.50;1.00;;;;;;5076457;28;20599;-43
2024/04/03 08:05:12;;;;;;;2.40;0.80;;;10.70;1.00;;;;;;5077942;28;20206;-42
2024/04/03 08:07:40;;;;;;;2.23;1.00;;;10.80;1.00;;;;;;5074288;28;20437;-42
2024/04/03 08:10:07;;;;;;;2.03;1.10;;;10.90;1.00;;;;;;5076436;28;20431;-43
2024/04/03 08:12:34;;;;;;;3.70;1.00;;;11.20;68.90;;;;;;5075766;28;20446;-43
2024/04/03 08:15:00;;;;;;;1.40;0.80;;;11.40;1.00;;;;;;5076372;28;20438;-42
2024/04/03 08:17:26;;;;;;;2.17;1.10;;;11.70;1.00;;;;;;5075815;28;20934;-42
2024/04/03 08:19:54;;;;;;;2.40;0.90;;;11.80;1.00;;;;;;5077064;28;20451;-42
2024/04/03 08:22:19;;;;;;;1.30;0.70;;;12.00;1.00;;;;;;5059577;28;20926;-47
2024/04/03 08:24:49;;;;;;;1.07;0.60;;;12.30;1.00;;;;;;5058313;28;20697;-43
2024/04/03 08:27:15;;;;;;;1.70;1.03;;;12.50;99.90;;;;;;5076955;28;20177;-42
2024/04/03 08:29:43;;;;;;;2.53;0.80;;;12.70;99.90;;;;;;5059210;28;20828;-42
2024/04/03 08:32:18;;;;;;;1.17;0.77;;;12.70;99.90;;;;;;5076963;28;20177;-44
2024/04/03 08:34:44;;;;;;;1.40;0.67;;;12.80;99.90;;;;;;5076312;28;20510;-43
2024/04/03 08:37:12;;;;;;;1.57;0.87;;;13.00;99.90;;;;;;5077686;28;20466;-42
2024/04/03 08:39:38;;;;;;;1.40;0.50;;;13.00;99.90;;;;;;5059231;28;20419;-42
2024/04/03 08:42:04;;;;;;;1.47;0.93;;;12.90;99.90;;;;;;5076526;28;20888;-42
2024/04/03 08:44:34;;;;;;;2.40;0.90;;;12.80;99.90;;;;;;5076884;28;20465;-42
2024/04/03 08:47:00;;;;;;;1.93;0.80;;;12.70;99.90;;;;;;5076565;28;20422;-43
2024/04/03 08:49:31;;;;;;;1.23;0.67;;;12.70;99.90;;;;;;5075020;28;20463;-44
2024/04/03 08:52:05;;;;;;;3.10;0.80;;;12.70;99.90;;;;;;5057813;28;20431;-43
2024/04/03 08:54:32;;;;;;;2.30;0.70;;;12.60;99.90;;;;;;5075214;28;20445;-43
2024/04/03 08:57:00;;;;;;;1.00;0.60;;;12.50;99.90;;;;;;5075400;28;20720;-42
2024/04/03 08:59:27;;;;;;;1.30;0.77;;;12.50;99.90;;;;;;5075595;28;20435;-43
2024/04/03 09:01:52;;;;;;;3.33;0.80;;;12.50;99.90;;;;;;5076819;28;20462;-41
2024/04/03 09:04:20;;;;;;;1.00;0.50;;;12.40;99.90;;;;;;5057577;28;20901;-42
2024/04/03 09:06:46;;;;;;;1.83;0.60;;;12.40;99.90;;;;;;5074790;28;20869;-44
2024/04/03 09:09:23;;;;;;;3.23;0.73;;;12.60;99.90;;;;;;5073554;28;20750;-42
2024/04/03 09:11:51;;;;;;;4.83;2.43;;;12.70;94.10;;;;;;5073487;28;20423;-41
2024/04/03 09:14:24;;;;;;;1.63;0.73;;;12.90;55.90;;;;;;5074920;28;20713;-42
2024/04/03 09:16:50;;;;;;;2.03;0.93;;;12.80;45.10;;;;;;5075157;28;20471;-43
2024/04/03 09:19:16;;;;;;;1.77;0.70;;;13.00;51.00;;;;;;5056761;28;20472;-42
2024/04/03 09:21:43;;;;;;;3.33;1.40;;;13.10;24.80;;;;;;5076959;28;20930;-41
2024/04/03 09:24:09;;;;;;;1.60;0.63;;;13.10;12.90;;;;;;5057938;28;20245;-42
2024/04/03 09:26:45;;;;;;;2.00;1.50;;;13.50;23.80;;;;;;5055651;28;20418;-41
2024/04/03 09:59:16;;;;;;;1.80;0.70;;;13.50;1.00;;;;;;5950727;23;20405;-41
2024/04/03 10:01:42;;;;;;;1.23;0.70;;;13.20;1.00;;;;;;5018754;28;20477;-42
2024/04/03 10:04:09;;;;;;;1.37;0.60;;;13.10;1.00;;;;;;5017721;28;20836;-41
2024/04/03 10:06:39;;;;;;;1.87;0.97;;;13.00;1.00;;;;;;5018028;28;20430;-43
2024/04/03 10:09:17;;;;;;;1.83;0.70;;;13.00;3.40;;;;;;5018081;28;20441;-41
2024/04/03 10:11:54;;;;;;;1.50;0.63;;;12.80;19.60;;;;;;5019147;28;20748;-41
2024/04/03 10:14:32;;;;;;;3.47;0.60;;;12.60;97.00;;;;;;5018255;28;20464;-44
2024/04/03 10:16:59;;;;;;;1.17;0.60;;;12.60;99.90;;;;;;5019429;28;20600;-41
2024/04/03 10:19:30;;;;;;;1.30;0.70;;;12.40;99.90;;;;;;5019115;28;20760;-44
2024/04/03 10:21:56;;;;;;;1.10;0.53;;;12.40;99.90;;;;;;5017760;28;20466;-44
2024/04/03 10:24:22;;;;;;;1.43;0.80;;;12.30;99.90;;;;;;5018474;28;20430;-42
2024/04/03 10:26:49;;;;;;;0.87;0.47;;;12.20;1.00;;;;;;5016004;28;20434;-42
2024/04/03 10:29:15;;;;;;;2.93;0.80;;;12.20;1.00;;;;;;5017560;28;20856;-42
2024/04/03 10:31:45;;;;;;;1.07;0.57;;;12.00;27.50;;;;;;5016070;28;20787;-42
2024/04/03 10:34:11;;;;;;;1.10;0.60;;;12.00;1.00;;;;;;5016719;28;20182;-44
2024/04/03 10:36:36;;;;;;;1.20;0.60;;;11.90;1.00;;;;;;5016842;28;20924;-41
2024/04/03 10:39:02;;;;;;;1.37;0.67;;;11.90;1.00;;;;;;5017013;28;20191;-42
2024/04/03 10:41:28;;;;;;;1.57;0.90;;;11.90;1.00;;;;;;5017752;28;20227;-41
2024/04/03 10:43:54;;;;;;;1.50;0.60;;;11.90;1.00;;;;;;5018454;28;20203;-42
2024/04/03 10:46:26;;;;;;;1.20;0.60;;;12.00;99.90;;;;;;5017103;28;20183;-43
2024/04/03 10:48:59;;;;;;;1.07;0.63;;;12.00;99.90;;;;;;5015409;28;20202;-43
2024/04/03 10:51:25;;;;;;;1.00;0.50;;;12.10;99.90;;;;;;5012641;28;20430;-44
2024/04/03 10:53:51;;;;;;;1.57;0.80;;;12.20;1.00;;;;;;5015128;28;20709;-44
2024/04/03 10:56:18;;;;;;;1.40;0.70;;;12.30;1.00;;;;;;5012623;28;20511;-43
2024/04/03 10:58:48;;;;;;;1.37;0.70;;;12.40;99.90;;;;;;5016242;28;20191;-42
2024/04/03 11:01:15;;;;;;;3.23;0.63;;;12.40;99.90;;;;;;4998586;28;20485;-42
2024/04/03 11:03:42;;;;;;;0.90;0.50;;;12.40;1.00;;;;;;5014467;28;20434;-42
2024/04/03 11:06:09;;;;;;;1.10;0.60;;;12.50;99.90;;;;;;5016485;28;20426;-43
2024/04/03 11:08:35;;;;;;;1.13;0.80;;;12.50;57.80;;;;;;5016715;28;20899;-43
2024/04/03 11:11:08;;;;;;;0.90;0.60;;;12.50;1.00;;;;;;5016833;28;20457;-44
2024/04/03 11:13:34;;;;;;;1.00;0.60;;;12.30;1.00;;;;;;5015694;28;20418;-42
2024/04/03 11:16:00;;;;;;;1.27;0.90;;;12.20;1.00;;;;;;5015371;28;20452;-42
2024/04/03 11:18:27;;;;;;;1.43;0.67;;;12.10;99.90;;;;;;5013562;28;20469;-41
2024/04/03 11:20:53;;;;;;;1.90;0.70;;;12.20;99.90;;;;;;5014286;28;20246;-41
2024/04/03 11:23:18;;;;;;;1.43;0.60;;;12.10;99.90;;;;;;5015921;28;20430;-43
2024/04/03 11:25:44;;;;;;;1.90;0.70;;;12.10;99.90;;;;;;5014766;28;20445;-42
2024/04/03 11:28:12;;;;;;;1.30;0.70;;;12.10;99.90;;;;;;4999222;28;20465;-42
2024/04/03 11:30:39;;;;;;;1.70;0.70;;;12.00;99.90;;;;;;5014529;28;20600;-41
2024/04/03 11:33:07;;;;;;;1.03;0.50;;;11.90;1.00;;;;;;5017306;28;20422;-44
2024/04/03 11:35:33;;;;;;;1.03;0.50;;;11.80;57.80;;;;;;5016680;28;20438;-42
2024/04/03 11:38:04;;;;;;;3.17;0.73;;;11.70;1.00;;;;;;5016634;28;20480;-43
2024/04/03 11:40:30;;;;;;;1.70;1.17;;;11.60;1.00;;;;;;5016589;28;20381;-42
2024/04/03 11:42:56;;;;;;;1.00;0.63;;;11.50;1.00;;;;;;5016707;28;20474;-42
2024/04/03 11:45:22;;;;;;;1.50;0.87;;;11.60;99.90;;;;;;4998945;28;20450;-42
2024/04/03 11:47:47;;;;;;;1.10;0.43;;;11.70;1.00;;;;;;5014923;28;20598;-42
2024/04/03 11:50:13;;;;;;;1.60;1.00;;;11.70;99.90;;;;;;5014058;28;20191;-42
2024/04/03 11:52:40;;;;;;;3.60;2.27;;;11.90;1.00;;;;;;5014340;28;20494;-44
2024/04/03 11:55:06;;;;;;;1.30;0.70;;;11.90;99.90;;;;;;5015365;28;20191;-43
2024/04/03 11:57:32;;;;;;;1.40;0.60;;;11.90;1.00;;;;;;5014971;28;20438;-42
2024/04/03 11:59:57;;;;;;;0.90;0.43;;;11.80;1.00;;;;;;5013090;28;20998;-41
2024/04/03 12:02:23;;;;;;;1.10;0.50;;;11.80;1.00;;;;;;5013683;28;20242;-42
2024/04/03 12:04:49;;;;;;;1.00;0.63;;;11.80;99.90;;;;;;5016303;28;20285;-41
2024/04/03 12:07:15;;;;;;;1.33;1.00;;;11.70;1.00;;;;;;5015033;28;20210;-43
2024/04/03 12:09:43;;;;;;;0.90;0.40;;;11.70;1.00;;;;;;5014970;28;20265;-42
2024/04/03 12:12:10;;;;;;;1.30;0.50;;;11.70;20.60;;;;;;5015976;28;20194;-43
2024/04/03 12:14:36;;;;;;;1.83;0.60;;;11.40;99.90;;;;;;5013828;28;20446;-43
2024/04/03 12:17:04;;;;;;;1.60;0.70;;;11.40;99.90;;;;;;5014752;28;20449;-42
2024/04/03 12:19:44;;;;;;;1.30;0.73;;;11.30;99.90;;;;;;5015812;28;20430;-43
2024/04/03 12:22:13;;;;;;;1.00;0.60;;;11.30;99.90;;;;;;5015073;28;20477;-42
2024/04/03 12:24:40;;;;;;;0.93;0.67;;;11.50;99.90;;;;;;5015224;28;20418;-42
2024/04/03 12:27:05;;;;;;;1.70;0.80;;;11.60;99.90;;;;;;5016896;28;20799;-44
2024/04/03 12:29:31;;;;;;;1.30;0.60;;;11.70;99.90;;;;;;5017164;28;20525;-45
2024/04/03 12:31:57;;;;;;;1.20;0.80;;;11.70;1.00;;;;;;5015584;28;20553;-41
2024/04/03 12:34:23;;;;;;;1.30;0.67;;;11.70;1.00;;;;;;5015971;28;20533;-42
2024/04/03 12:36:48;;;;;;;0.73;0.40;;;11.50;99.90;;;;;;5013604;28;20478;-43
2024/04/03 12:39:14;;;;;;;1.30;0.77;;;11.40;99.90;;;;;;5012750;28;20256;-43
2024/04/03 12:41:40;;;;;;;1.07;0.60;;;11.30;99.90;;;;;;5013454;28;20613;-42
2024/04/03 12:44:05;;;;;;;2.03;0.70;;;11.20;99.90;;;;;;5012271;28;20179;-42
2024/04/03 12:46:31;;;;;;;1.37;0.90;;;11.30;99.90;;;;;;5013752;28;20233;-41
2024/04/03 12:48:57;;;;;;;1.20;0.60;;;11.40;1.00;;;;;;5013586;28;20199;-41
2024/04/03 12:51:23;;;;;;;1.27;0.70;;;11.40;1.00;;;;;;5012358;28;20187;-41
2024/04/03 12:53:49;;;;;;;1.10;0.60;;;11.50;99.90;;;;;;5013270;28;20471;-43
2024/04/03 12:56:14;;;;;;;1.30;0.80;;;11.50;99.90;;;;;;5012982;28;20424;-43
2024/04/03 12:58:40;;;;;;;0.80;0.43;;;11.40;99.90;;;;;;5011779;28;20308;-41
2024/04/03 13:01:07;;;;;;;1.67;0.67;;;11.40;1.00;;;;;;5013133;28;20289;-41
2024/04/03 13:03:33;;;;;;;1.43;0.70;;;11.50;1.00;;;;;;5013230;28;20187;-43
2024/04/03 13:05:59;;;;;;;0.80;0.50;;;11.40;1.00;;;;;;5012589;28;20430;-42
2024/04/03 13:08:25;;;;;;;1.80;0.70;;;11.40;1.00;;;;;;5013908;28;20418;-40
2024/04/03 13:10:50;;;;;;;0.90;0.60;;;11.40;1.00;;;;;;5013129;28;20421;-43
2024/04/03 13:13:16;;;;;;;1.60;0.63;;;11.50;1.00;;;;;;5012248;28;20184;-42
2024/04/03 13:15:42;;;;;;;0.90;0.60;;;11.50;1.00;;;;;;5012851;28;20183;-43
2024/04/03 13:18:09;;;;;;;1.70;0.80;;;11.40;17.00;;;;;;5016122;28;20458;-42
2024/04/03 13:20:35;;;;;;;1.40;0.60;;;11.50;91.50;;;;;;5016162;28;20201;-41
2024/04/03 13:23:01;;;;;;;0.97;0.63;;;11.50;1.00;;;;;;5016308;28;20473;-41
2024/04/03 13:25:28;;;;;;;1.10;0.80;;;11.50;59.60;;;;;;5017691;28;20493;-42
2024/04/03 13:27:54;;;;;;;1.07;0.70;;;11.30;97.20;;;;;;5016783;28;20422;-44
2024/04/03 13:30:20;;;;;;;1.50;0.80;;;11.40;99.90;;;;;;5016825;28;20422;-41